x

Stonewall Bank - 20nm West Of Newport, Or (46050) Wave Buoy

5:50am - Tue 16th Sep 2014 All times are PDT. -7 hours from GMT.

  • Sig Wave height 3.9ft
  • Swell Direction
  • Peak Period 21s
  • Average Period 5s
  • Wind
    13mph, 16mph gusts
  • Sea Temp 64°f
  • Air Temp 61°f
  • Sea Pressure 1012.2mb
  • Stonewall Bank - 20nm West Of Newport, Or
  • Stonewall Bank - 20nm West Of Newport, Or

More Historic Weather Station data

Upgrade to MSW Pro to gain access to the past 30 days of data for over 8000 Wavebouys and Weather Stations around the globe.

Join Pro

Comparision Forecast

View Surf forecast
   
Tue 09/16 5:50am 4ft 21s 5s 13 16 mph 1012.2mb 64f 61f
4:50am 4ft 16s 5s 13 16 mph 1012.1mb 64f 61f
3:50am 3.5ft 16s 5s 11 13 mph 1012.3mb 64f 61f
2:50am 3.5ft 21s 5s 11 13 mph 1012.3mb 64f 60f
1:50am 3.5ft 16s 5s 13 16 mph 1012.4mb 64f 60f
12:50am 3.5ft 15s 5s 13 18 mph 1012.4mb 63f 60f
Mon 09/15 11:50pm 3.5ft 16s 5s 16 18 mph 1012.4mb 64f 60f
10:50pm 3.5ft 16s 5s 16 20 mph 1012.1mb 64f 59f
9:50pm 4.5ft 5s 5s 18 20 mph 1012.1mb 64f 59f
8:50pm 3.5ft 4s 4s 22 27 mph 1011.6mb 64f 59f
7:50pm 4ft 16s 5s 18 22 mph 1011.2mb 65f 58f
6:50pm 3ft 16s 4s 18 22 mph 1011mb 65f 58f
5:50pm 3.5ft 17s 4s 16 18 mph 1011.1mb 64f 58f
4:50pm 3.5ft 4s 4s 16 20 mph 1011.1mb 65f 58f
3:50pm 3ft 4s 4s 16 18 mph 1011mb 64f 58f
2:50pm 3ft 17s 5s 13 18 mph 1010.9mb 64f 59f
1:50pm 2.5ft 17s 5s 16 18 mph 1010.8mb 65f 59f
12:50pm 2.5ft 17s 6s 13 16 mph 1010.8mb 64f 58f
11:50am 2ft 17s 6s 9 11 mph 1010.5mb 63f 57f
10:50am 2.5ft 12s 7s 7 11 mph 1010.6mb 63f 57f
9:50am 2.5ft 19s 7s 7 11 mph 1010.5mb 63f 56f
8:50am 2ft 7s 7s 4 7 mph 1010.3mb 64f 56f
7:50am 2.5ft 17s 7s 4 7 mph 1010.2mb 63f 55f
6:50am 2.5ft 19s 6s 4 7 mph 1010.3mb 64f 55f
5:50am 2.5ft 7s 6s  -  4 mph 1010mb 64f 56f
4:50am 2.5ft 19s 6s  -  2 mph 1009.8mb 64f 57f
3:50am 2.5ft 6s 6s 2 4 mph 1009.9mb 63f 58f
2:50am 2.5ft 19s 6s  -  4 mph 1010.1mb 63f 58f
1:50am 2.5ft 7s 6s  -  2 mph 1010.2mb 63f 59f
12:50am 2.5ft 6s 6s 2 4 mph 1010.3mb 63f 61f
Sun 09/14 11:50pm 3ft 6s 6s 2 4 mph 1010.2mb 64f 63f
10:50pm 2.5ft 6s 6s 2
mph
1010.2mb 64f 62f
9:50pm 2.5ft 7s 6s  -  2 mph 1010mb 64f 62f
8:50pm 2.5ft 7s 6s  -  2 mph 1010mb 65f 63f
7:50pm 2.5ft 6s 6s  -  mph 1009.8mb 66f 62f
6:50pm 3ft 7s 6s  -  2 mph 1009.6mb 65f 62f
5:50pm 2.5ft 10s 5s  -  mph 1009.8mb 66f 64f
4:50pm 3ft 7s 6s  -  mph 1009.9mb 66f 64f
3:50pm 2.5ft 6s 6s  -  mph 1010mb 67f 64f
2:50pm 3ft 9s 6s  -  mph 1010.2mb 64f 63f
1:50pm 2.5ft 10s 6s  -  mph 1010.5mb 61f 60f
12:50pm 3ft 6s 6s  -  mph 1010.6mb 59f 58f
11:50am 3.5ft 6s 6s  -  mph 1010.7mb 57f 57f
10:50am 3.5ft 6s 6s  -  2 mph 1010.7mb 56f 56f
9:50am 3.5ft 8s 6s 4
mph
1010.6mb 56f 57f
8:50am 3.5ft 7s 6s 2 4 mph 1010.3mb 57f 57f
7:50am 3.5ft 7s 6s 4 7 mph 1009.8mb 57f 57f
6:50am 3.5ft 7s 6s 4 7 mph 1009.5mb 57f 57f
5:50am 3.5ft 8s 6s  -  2 mph 1009.4mb 58f 58f
4:50am 3.5ft 7s 6s 2 4 mph 1009.4mb 57f 58f
3:50am 3.5ft 7s 6s  -  2 mph 1009.4mb 56f 58f
2:50am 4.5ft 7s 6s  -  mph 1009.5mb 56f 58f
1:50am 4ft 8s 6s  -  mph 1009.7mb 56f 58f
12:50am 4ft 7s 6s  -  mph 1009.7mb 56f 58f
Sat 09/13 11:50pm 3.5ft 7s 6s  -  mph 1009.8mb 56f 59f
10:50pm 4ft 7s 7s 2 4 mph 1009.7mb 56f 59f
9:50pm 4ft 9s 6s 4 7 mph 1009.8mb 57f 59f
8:50pm 4.5ft 8s 6s  -  2 mph 1009.7mb 56f 59f
7:50pm 4.5ft 7s 6s 2 4 mph 1009.4mb 56f 60f
6:50pm 4.5ft 10s 6s  -  4 mph 1009.4mb 56f 61f
5:50pm 4.5ft 7s 6s  -  2 mph 1009.5mb 57f 61f
4:50pm 5ft 7s 6s 2 4 mph 1009.7mb 56f 60f
3:50pm 4.5ft 7s 6s 2 4 mph 1009.8mb 55f 60f
2:50pm 5ft 7s 6s 2 4 mph 1009.9mb 54f 60f
1:50pm 4.5ft 7s 6s  -  mph 1010.3mb 56f 58f
12:50pm 4.5ft 11s 6s  -  mph 1010.4mb 54f 57f
11:50am 4.5ft 7s 6s  -  mph 1010.8mb 54f 55f
10:50am 4.5ft 7s 6s  -  mph 1011mb 53f 53f
9:50am 4.5ft 6s 6s  -  mph 1011mb 52f 53f
8:50am 4.5ft 7s 6s  -  mph 1010.9mb 51f 53f
7:50am 4.5ft 11s 6s  -  2 mph 1010.8mb 51f 54f
6:50am 5ft 11s 6s  -  2 mph 1010.7mb 52f 52f
5:50am 5ft 9s 6s 2 4 mph 1010.7mb 52f 52f
4:50am 5.5ft 7s 6s 2 4 mph 1010.3mb 52f 52f
3:50am 5.5ft 7s 6s 2 4 mph 1010.5mb 52f 53f
2:50am 5.5ft 10s 6s 4
mph
1010.7mb 52f 54f
1:50am 5ft 6s 6s  -  2 mph 1010.9mb 52f 54f
12:50am 4.5ft 11s 6s 4
mph
1010.8mb 52f 56f
Fri 09/12 11:50pm 5ft 6s 6s 4 7 mph 1010.9mb 52f 56f
10:50pm 5ft 6s 6s 7 9 mph 1011.1mb 52f 57f
9:50pm 5.5ft 6s 6s 9
mph
1011.3mb 52f 57f
8:50pm 5.5ft 11s 6s 11 13 mph 1011.4mb 52f 58f
7:50pm 5ft 11s 6s 11
mph
1011.4mb 52f 58f
6:50pm 4.5ft 11s 6s 11 13 mph 1011.3mb 53f 59f
5:50pm 4.5ft 11s 6s 9 11 mph 1011.4mb 54f 59f
4:50pm 4.5ft 11s 6s 9 11 mph 1011.6mb 54f 59f
3:50pm 4.5ft 11s 6s 7 9 mph 1011.8mb 54f 58f
2:50pm 4.5ft 11s 6s 4 7 mph 1012.1mb 55f 58f